Portada
METAR-TAF:

METAR-TAF

Aeroports :

Kingstree, Carolina del Sud, Estats Units d'Amèrica

latitud: 33-43-02N, longitud: 079-51-25W, altitud: 20 m

Observació

L'informe es va fer fa 54 minuts, a les 21:35 UTC
Vent 3 kt del Nord
Temperatura 6°C
Humitat 36%
Pressió 1027 hPa
Visibilitat: 16.1 km
Cel clar

METAR: KCKI 132135Z AUTO 01003KT 10SM CLR 06/M08 A3034 RMK AO2

Hora: 17:29 (22:29 UTC)


TAF: manca

Observacions i pronòstics meteorològics de més de 4000 aeroports (METAR i TAF).

Les estacions disponibles són els punts grocs i vermells al mapa.

Posi el ratolí al punt desitjat per veure el nom de l'estació.

Feu clic per veure les observacions i els pronòstics meteorològics.

Per canviar el mapa: feu clic els botons verds amb una creu de color negre per apropar; al botó verd amb un guió per allunyar la imatge; o en les fletxes verdes per a mapes adjacents.


METAR-TAF: